Time;durP1;ratioP1;P1;durP2;ratioP2;P2;SDS_P1;SDS_P2;PMS_P1;PMS_P2;Temp;Humidity;BMP_temperature;BMP_pressure;BME280_temperature;BME280_humidity;BME280_pressure;Samples;Min_cycle;Max_cycle;Signal;HPM_P1;HPM_P2
2021/01/30 00:02:07;;;;;;;1.07;1.07;;;19.70;43.90;;;;;;4975086;28;20546;-68
2021/01/30 00:04:33;;;;;;;0.80;0.80;;;19.70;43.90;;;;;;5034415;28;20486;-68
2021/01/30 00:06:59;;;;;;;1.37;1.30;;;19.70;44.10;;;;;;4968063;28;20486;-69
2021/01/30 00:09:26;;;;;;;0.80;0.80;;;19.70;44.00;;;;;;4968680;28;21590;-69
2021/01/30 00:11:53;;;;;;;0.73;0.73;;;19.70;43.90;;;;;;5039758;28;20494;-69
2021/01/30 00:14:20;;;;;;;1.13;1.13;;;19.80;43.90;;;;;;4968896;28;21921;-68
2021/01/30 00:16:47;;;;;;;0.90;0.90;;;19.80;43.80;;;;;;4962889;28;20474;-69
2021/01/30 00:19:13;;;;;;;0.87;0.87;;;19.80;43.80;;;;;;5047107;28;20482;-69
2021/01/30 00:21:39;;;;;;;1.17;1.07;;;19.80;43.60;;;;;;4967869;28;20488;-69
2021/01/30 00:24:06;;;;;;;0.77;0.77;;;19.90;43.80;;;;;;4967567;28;21133;-68
2021/01/30 00:26:32;;;;;;;1.23;0.90;;;19.90;43.60;;;;;;4969109;28;20525;-68
2021/01/30 00:28:58;;;;;;;0.90;0.90;;;19.90;43.70;;;;;;4968675;28;21514;-68
2021/01/30 00:31:24;;;;;;;1.47;0.90;;;19.90;43.50;;;;;;4990594;28;20500;-68
2021/01/30 00:33:51;;;;;;;0.77;0.77;;;19.90;43.50;;;;;;5023409;28;20498;-68
2021/01/30 00:36:17;;;;;;;0.60;0.60;;;19.90;43.40;;;;;;4968967;28;20490;-68
2021/01/30 00:38:43;;;;;;;0.73;0.73;;;19.90;43.50;;;;;;4968631;28;21012;-69
2021/01/30 00:41:10;;;;;;;0.70;0.70;;;19.90;43.70;;;;;;4970235;28;20902;-68
2021/01/30 00:43:36;;;;;;;0.73;0.73;;;19.90;43.80;;;;;;4966785;28;20554;-69
2021/01/30 00:46:02;;;;;;;1.07;0.87;;;19.80;43.50;;;;;;4969962;28;20499;-68
2021/01/30 00:48:28;;;;;;;0.60;0.60;;;19.80;43.50;;;;;;4968823;28;20558;-68
2021/01/30 00:50:55;;;;;;;0.90;0.90;;;19.80;43.70;;;;;;5042923;28;20496;-68
2021/01/30 00:53:21;;;;;;;0.60;0.60;;;19.80;43.80;;;;;;4966396;28;20489;-69
2021/01/30 00:55:47;;;;;;;0.90;0.90;;;19.70;43.90;;;;;;4967083;28;21112;-69
2021/01/30 00:58:14;;;;;;;1.20;1.10;;;19.70;43.90;;;;;;4966802;28;20490;-72
2021/01/30 01:00:40;;;;;;;1.00;1.00;;;19.70;43.90;;;;;;4966885;28;20477;-68
2021/01/30 01:03:06;;;;;;;0.90;0.90;;;19.70;44.10;;;;;;4967519;28;20489;-68
2021/01/30 01:05:32;;;;;;;0.80;0.80;;;19.70;43.90;;;;;;5032792;28;20497;-68
2021/01/30 01:07:59;;;;;;;0.70;0.70;;;19.70;44.10;;;;;;4975459;28;20498;-68
2021/01/30 01:10:25;;;;;;;0.70;0.70;;;19.60;44.00;;;;;;4972168;28;21659;-68
2021/01/30 01:12:51;;;;;;;1.00;1.00;;;19.70;44.20;;;;;;4972861;28;20945;-68
2021/01/30 01:15:19;;;;;;;0.70;0.70;;;19.60;43.90;;;;;;4971092;28;20482;-69
2021/01/30 01:17:45;;;;;;;0.70;0.70;;;19.70;43.90;;;;;;4970821;28;20481;-69
2021/01/30 01:20:13;;;;;;;0.70;0.70;;;19.70;44.00;;;;;;4972270;28;20492;-68
2021/01/30 01:22:39;;;;;;;0.80;0.80;;;19.70;43.90;;;;;;4970025;28;20485;-68
2021/01/30 01:25:08;;;;;;;0.70;0.70;;;19.70;43.80;;;;;;4971115;28;20478;-68
2021/01/30 01:27:34;;;;;;;0.93;0.87;;;19.80;43.80;;;;;;4984028;28;22706;-68
2021/01/30 01:30:00;;;;;;;1.00;1.00;;;19.80;43.80;;;;;;4990249;28;20542;-68
2021/01/30 01:32:26;;;;;;;0.70;0.70;;;19.80;43.70;;;;;;4985254;28;20486;-67
2021/01/30 01:34:52;;;;;;;0.77;0.77;;;19.80;43.80;;;;;;4971467;28;20490;-68
2021/01/30 01:37:18;;;;;;;0.70;0.70;;;19.70;43.60;;;;;;4971412;28;20497;-69
2021/01/30 01:39:45;;;;;;;1.17;0.90;;;19.70;43.80;;;;;;4969409;28;20477;-70
2021/01/30 01:42:13;;;;;;;0.80;0.80;;;19.70;43.90;;;;;;4973633;28;20485;-68
2021/01/30 01:44:39;;;;;;;0.93;0.93;;;19.70;43.90;;;;;;4971504;28;20473;-69
2021/01/30 01:47:06;;;;;;;1.00;1.00;;;19.70;44.00;;;;;;4971185;28;20563;-68
2021/01/30 01:49:34;;;;;;;0.80;0.80;;;19.70;44.10;;;;;;4973500;28;20489;-68
2021/01/30 01:52:05;;;;;;;0.80;0.80;;;19.70;43.90;;;;;;4970013;28;20486;-68
2021/01/30 01:54:32;;;;;;;0.70;0.70;;;19.60;44.00;;;;;;4967382;28;20490;-68
2021/01/30 01:57:00;;;;;;;0.80;0.80;;;19.70;44.10;;;;;;4972502;28;20489;-68
2021/01/30 01:59:27;;;;;;;0.77;0.77;;;19.60;44.10;;;;;;4967804;28;21189;-68
2021/01/30 02:01:54;;;;;;;0.87;0.87;;;19.70;44.00;;;;;;4971154;28;20517;-68
2021/01/30 02:04:21;;;;;;;0.60;0.60;;;19.60;44.00;;;;;;5044299;28;20480;-68
2021/01/30 02:06:47;;;;;;;0.83;0.83;;;19.60;44.00;;;;;;4968998;28;20548;-69
2021/01/30 02:09:14;;;;;;;0.80;0.80;;;19.60;44.00;;;;;;5026099;28;20560;-68
2021/01/30 02:11:41;;;;;;;0.90;0.90;;;19.70;44.10;;;;;;4970005;28;21000;-68
2021/01/30 02:14:07;;;;;;;0.70;0.70;;;19.60;44.00;;;;;;4995647;28;20484;-69
2021/01/30 02:16:41;;;;;;;0.90;0.90;;;19.60;43.90;;;;;;5018176;28;20477;-69
2021/01/30 02:19:37;;;;;;;1.60;0.73;;;19.70;43.90;;;;;;4971016;28;20544;-68
2021/01/30 02:22:17;;;;;;;1.00;1.00;;;19.70;43.90;;;;;;4974976;28;20497;-68
2021/01/30 02:25:13;;;;;;;1.30;0.93;;;19.70;43.90;;;;;;5021987;28;20474;-68
2021/01/30 02:28:08;;;;;;;1.00;1.00;;;19.70;43.70;;;;;;4971422;28;20900;-69
2021/01/30 02:31:01;;;;;;;1.00;1.00;;;19.70;43.70;;;;;;4969966;28;20482;-68
2021/01/30 02:33:51;;;;;;;0.70;0.70;;;19.70;43.80;;;;;;4970915;28;20608;-68
2021/01/30 02:36:29;;;;;;;0.70;0.70;;;19.70;44.00;;;;;;4959212;28;20490;-69
2021/01/30 02:38:57;;;;;;;0.77;0.77;;;19.70;44.00;;;;;;4971139;28;21005;-69
2021/01/30 02:41:25;;;;;;;0.70;0.70;;;19.70;44.00;;;;;;5028083;28;21090;-68
2021/01/30 02:43:51;;;;;;;0.80;0.80;;;19.60;43.80;;;;;;4985278;28;20644;-68
2021/01/30 02:46:20;;;;;;;0.90;0.90;;;19.60;43.90;;;;;;4969891;28;20492;-69
2021/01/30 02:48:47;;;;;;;1.00;1.00;;;19.60;43.80;;;;;;4967189;28;21040;-70
2021/01/30 02:51:14;;;;;;;0.90;0.90;;;19.70;43.90;;;;;;5051239;28;20473;-68
2021/01/30 02:53:47;;;;;;;1.37;0.80;;;19.70;43.80;;;;;;4968956;28;20500;-68
2021/01/30 02:56:13;;;;;;;0.90;0.90;;;19.70;43.70;;;;;;4963642;28;20478;-68
2021/01/30 02:58:41;;;;;;;0.93;0.93;;;19.80;43.80;;;;;;4969747;28;20496;-68
2021/01/30 03:01:07;;;;;;;0.90;0.90;;;19.70;43.60;;;;;;5040479;28;20489;-68
2021/01/30 03:03:33;;;;;;;0.90;0.90;;;19.80;43.70;;;;;;4971045;28;20481;-68
2021/01/30 03:06:01;;;;;;;1.10;1.10;;;19.70;43.50;;;;;;4968283;28;20512;-68
2021/01/30 03:08:29;;;;;;;1.00;1.00;;;19.70;43.50;;;;;;4972931;28;20897;-68
2021/01/30 03:11:02;;;;;;;0.90;0.90;;;19.70;43.50;;;;;;4970578;28;20505;-68
2021/01/30 03:13:30;;;;;;;1.30;1.30;;;19.70;43.70;;;;;;4969404;28;20985;-68
2021/01/30 03:15:59;;;;;;;0.87;0.87;;;19.70;43.60;;;;;;4967331;28;21022;-68
2021/01/30 03:18:30;;;;;;;0.73;0.73;;;19.80;43.70;;;;;;4966990;28;20490;-68
2021/01/30 03:20:56;;;;;;;1.07;1.07;;;19.80;43.80;;;;;;5048582;28;20485;-68
2021/01/30 03:23:22;;;;;;;0.90;0.90;;;19.80;43.80;;;;;;4967552;28;20482;-69
2021/01/30 03:25:48;;;;;;;1.20;1.10;;;19.80;43.70;;;;;;4970521;28;20837;-68
2021/01/30 03:28:16;;;;;;;0.97;0.97;;;19.80;43.80;;;;;;4970459;28;20479;-68
2021/01/30 03:30:42;;;;;;;1.10;1.10;;;19.80;43.70;;;;;;4966016;28;20560;-69
2021/01/30 03:33:09;;;;;;;0.80;0.80;;;19.70;43.60;;;;;;4969246;28;20486;-68
2021/01/30 03:35:35;;;;;;;0.80;0.80;;;19.70;43.70;;;;;;4968446;28;20482;-69
2021/01/30 03:38:01;;;;;;;1.47;1.40;;;19.70;43.60;;;;;;4969394;28;20493;-68
2021/01/30 03:40:27;;;;;;;1.40;1.30;;;19.70;43.70;;;;;;4969745;28;20489;-67
2021/01/30 03:42:54;;;;;;;1.17;1.17;;;19.70;43.70;;;;;;5023540;28;20836;-70
2021/01/30 03:45:23;;;;;;;1.00;1.00;;;19.70;43.90;;;;;;4983735;28;21008;-69
2021/01/30 03:47:49;;;;;;;0.90;0.90;;;19.60;44.20;;;;;;4968330;28;21060;-68
2021/01/30 03:50:15;;;;;;;1.00;1.00;;;19.70;43.80;;;;;;4969606;28;20573;-68
2021/01/30 03:52:42;;;;;;;1.20;1.20;;;19.70;43.90;;;;;;4965931;28;20481;-69
2021/01/30 03:55:08;;;;;;;1.17;1.17;;;19.60;43.70;;;;;;4969120;28;20487;-69
2021/01/30 03:57:35;;;;;;;1.27;1.13;;;19.60;43.60;;;;;;4968908;28;20542;-70
2021/01/30 04:00:01;;;;;;;1.10;1.10;;;19.60;43.60;;;;;;5037677;28;20473;-68
2021/01/30 04:02:28;;;;;;;1.20;1.20;;;19.60;43.70;;;;;;5031351;28;20477;-68
2021/01/30 04:04:54;;;;;;;1.10;1.10;;;19.70;43.80;;;;;;5017045;28;20501;-69
2021/01/30 04:07:20;;;;;;;1.30;1.20;;;19.70;43.70;;;;;;5024413;28;20494;-69
2021/01/30 04:09:47;;;;;;;1.90;1.47;;;19.70;43.80;;;;;;4968132;28;20538;-68
2021/01/30 04:12:14;;;;;;;0.87;0.87;;;19.70;43.70;;;;;;5023188;28;20475;-68
2021/01/30 04:14:40;;;;;;;0.87;0.87;;;19.70;43.60;;;;;;4968107;28;20488;-68
2021/01/30 04:17:09;;;;;;;1.17;1.17;;;19.60;43.50;;;;;;4968720;28;20869;-69
2021/01/30 04:19:36;;;;;;;1.67;1.57;;;19.70;43.70;;;;;;4972406;28;20493;-69
2021/01/30 04:22:03;;;;;;;1.57;1.47;;;19.60;43.90;;;;;;5041238;28;20585;-68
2021/01/30 04:24:29;;;;;;;1.47;1.47;;;19.60;43.90;;;;;;4968882;28;21181;-68
2021/01/30 04:26:55;;;;;;;1.20;1.20;;;19.60;43.90;;;;;;4967981;28;21106;-68
2021/01/30 04:29:21;;;;;;;1.43;1.40;;;19.60;43.80;;;;;;4968759;28;20481;-67
2021/01/30 04:31:53;;;;;;;0.93;0.93;;;19.50;43.90;;;;;;4979502;28;20528;-69
2021/01/30 04:34:19;;;;;;;1.47;1.47;;;19.50;43.90;;;;;;5049290;28;20491;-68
2021/01/30 04:36:46;;;;;;;1.30;1.30;;;19.50;44.00;;;;;;4983849;28;20514;-68
2021/01/30 04:39:12;;;;;;;1.97;1.20;;;19.50;44.00;;;;;;4966149;28;20512;-68
2021/01/30 04:41:44;;;;;;;1.57;1.23;;;19.50;44.00;;;;;;4968303;28;20473;-68
2021/01/30 04:44:12;;;;;;;1.50;1.50;;;19.40;43.90;;;;;;4968102;28;21001;-68
2021/01/30 04:46:46;;;;;;;1.90;1.10;;;19.40;43.90;;;;;;4969558;28;20876;-68
2021/01/30 04:49:16;;;;;;;1.20;1.20;;;19.40;44.20;;;;;;5013956;28;21977;-68
2021/01/30 04:51:47;;;;;;;1.73;1.20;;;19.40;44.10;;;;;;4987650;28;20476;-70
2021/01/30 04:54:28;;;;;;;1.60;1.50;;;19.40;44.00;;;;;;5017509;28;21100;-68
2021/01/30 04:57:02;;;;;;;1.70;1.60;;;19.40;43.90;;;;;;4975392;28;20835;-69
2021/01/30 04:59:37;;;;;;;2.10;1.20;;;19.40;44.00;;;;;;5043041;28;20928;-68
2021/01/30 05:02:05;;;;;;;1.30;1.30;;;19.40;44.10;;;;;;4968123;28;20543;-68
2021/01/30 05:04:31;;;;;;;1.43;1.33;;;19.40;44.00;;;;;;4982431;28;20490;-69
2021/01/30 05:07:03;;;;;;;1.37;1.37;;;19.40;43.90;;;;;;4985256;28;20482;-69
2021/01/30 05:09:46;;;;;;;0.87;0.87;;;19.40;43.90;;;;;;4985670;28;20486;-68
2021/01/30 05:12:15;;;;;;;1.70;1.60;;;19.40;44.00;;;;;;5035931;28;20481;-68
2021/01/30 05:14:45;;;;;;;1.53;1.53;;;19.40;43.90;;;;;;5027367;28;20477;-67
2021/01/30 05:17:15;;;;;;;1.53;1.43;;;19.40;44.10;;;;;;4968732;28;20481;-68
2021/01/30 05:19:42;;;;;;;1.23;1.23;;;19.40;44.00;;;;;;5045238;28;20482;-68
2021/01/30 05:22:12;;;;;;;1.20;1.20;;;19.40;44.10;;;;;;4973126;28;20550;-68
2021/01/30 05:24:38;;;;;;;1.10;1.10;;;19.50;43.90;;;;;;4965219;28;20538;-68
2021/01/30 05:27:17;;;;;;;1.23;1.20;;;19.40;43.90;;;;;;4968265;28;20493;-68
2021/01/30 05:29:50;;;;;;;1.20;1.20;;;19.40;44.10;;;;;;4966751;28;20470;-68
2021/01/30 05:32:19;;;;;;;1.20;1.10;;;19.40;43.90;;;;;;5041025;28;20614;-68
2021/01/30 05:34:46;;;;;;;1.17;1.17;;;19.40;44.00;;;;;;5029009;28;20962;-69
2021/01/30 05:37:14;;;;;;;2.33;1.50;;;19.40;43.90;;;;;;5036399;28;20504;-68
2021/01/30 05:39:55;;;;;;;1.03;1.03;;;19.40;43.80;;;;;;5009652;28;20482;-69
2021/01/30 05:42:30;;;;;;;2.43;1.20;;;19.40;43.80;;;;;;4966949;28;20534;-68
2021/01/30 05:44:59;;;;;;;1.13;1.13;;;19.40;43.90;;;;;;5035054;28;20481;-68
2021/01/30 05:47:28;;;;;;;1.40;1.40;;;19.40;43.90;;;;;;4967804;28;20483;-68
2021/01/30 05:50:03;;;;;;;0.90;0.90;;;19.30;43.90;;;;;;4971754;28;20485;-68
2021/01/30 05:52:31;;;;;;;1.43;1.43;;;19.30;43.90;;;;;;4966380;28;20539;-68
2021/01/30 05:54:57;;;;;;;1.00;1.00;;;19.30;44.10;;;;;;4968420;28;20520;-70
2021/01/30 05:57:24;;;;;;;1.10;1.10;;;19.30;44.10;;;;;;5028350;28;20482;-68
2021/01/30 05:59:52;;;;;;;1.37;1.37;;;19.30;44.10;;;;;;4999598;28;21058;-68
2021/01/30 06:02:20;;;;;;;1.37;1.27;;;19.30;44.10;;;;;;5030563;28;20485;-69
2021/01/30 06:04:47;;;;;;;1.53;1.53;;;19.30;44.10;;;;;;4969963;28;20550;-70
2021/01/30 06:07:29;;;;;;;1.00;1.00;;;19.30;43.90;;;;;;4968968;28;20496;-68
2021/01/30 06:09:56;;;;;;;1.67;1.57;;;19.30;44.00;;;;;;4985881;28;20508;-68
2021/01/30 06:12:25;;;;;;;1.00;1.00;;;19.40;43.80;;;;;;5028071;28;20489;-69
2021/01/30 06:14:51;;;;;;;1.13;1.13;;;19.40;43.80;;;;;;4969694;28;21173;-69
2021/01/30 06:17:29;;;;;;;1.30;1.30;;;19.40;43.70;;;;;;4969890;28;20473;-68
2021/01/30 06:20:01;;;;;;;1.20;1.20;;;19.50;43.70;;;;;;5043278;28;20497;-69
2021/01/30 06:22:27;;;;;;;1.27;1.17;;;19.50;43.50;;;;;;4968658;28;20501;-68
2021/01/30 06:24:53;;;;;;;1.30;1.20;;;19.50;43.30;;;;;;4968209;28;20890;-68
2021/01/30 06:27:27;;;;;;;1.00;1.00;;;19.50;43.40;;;;;;4970867;28;20493;-69
2021/01/30 06:29:55;;;;;;;1.13;1.07;;;19.60;43.40;;;;;;4969955;28;20562;-69
2021/01/30 06:32:24;;;;;;;1.40;1.40;;;19.60;43.40;;;;;;4969851;28;20478;-68
2021/01/30 06:34:52;;;;;;;0.90;0.90;;;19.60;43.30;;;;;;4968079;28;20493;-68
2021/01/30 06:37:38;;;;;;;1.47;1.43;;;19.60;43.40;;;;;;4979690;28;20493;-68
2021/01/30 06:40:07;;;;;;;1.50;1.27;;;19.70;43.50;;;;;;5020747;28;20566;-68
2021/01/30 06:42:34;;;;;;;1.10;1.10;;;19.60;43.20;;;;;;4969897;28;20555;-68
2021/01/30 06:45:01;;;;;;;0.80;0.80;;;19.70;43.10;;;;;;4968008;28;20498;-67
2021/01/30 06:47:27;;;;;;;1.50;1.40;;;19.80;43.00;;;;;;5044690;28;20482;-68
2021/01/30 06:49:54;;;;;;;1.30;1.30;;;19.80;42.90;;;;;;4969932;28;20482;-69
2021/01/30 06:52:24;;;;;;;1.20;1.20;;;19.80;42.80;;;;;;5042272;28;20469;-69
2021/01/30 06:55:08;;;;;;;0.87;0.87;;;19.80;42.80;;;;;;4968084;28;20871;-69
2021/01/30 06:57:36;;;;;;;0.90;0.90;;;19.80;42.90;;;;;;5041762;28;21253;-69
2021/01/30 07:00:05;;;;;;;1.20;1.20;;;19.70;42.90;;;;;;5028689;28;20493;-68
2021/01/30 07:02:34;;;;;;;1.60;1.50;;;19.70;43.00;;;;;;4970974;28;20481;-68
2021/01/30 07:05:13;;;;;;;1.07;1.07;;;19.60;43.00;;;;;;4968873;28;20540;-69
2021/01/30 07:07:49;;;;;;;1.40;1.30;;;19.60;43.10;;;;;;4971742;28;20500;-69
2021/01/30 07:10:20;;;;;;;0.93;0.93;;;19.70;43.40;;;;;;5036691;28;21019;-68
2021/01/30 07:12:56;;;;;;;2.10;1.17;;;19.70;43.30;;;;;;5024228;28;20474;-69
2021/01/30 07:15:23;;;;;;;1.00;0.97;;;19.60;43.00;;;;;;4964781;28;20530;-70
2021/01/30 07:18:13;;;;;;;1.00;1.00;;;19.70;43.10;;;;;;4969544;28;20486;-68
2021/01/30 07:20:46;;;;;;;1.57;1.47;;;19.70;42.90;;;;;;4971415;28;21066;-68
2021/01/30 07:23:14;;;;;;;1.20;1.20;;;19.70;42.90;;;;;;4967245;28;20477;-68
2021/01/30 07:25:44;;;;;;;0.87;0.87;;;19.70;42.90;;;;;;4971326;28;21451;-68
2021/01/30 07:28:23;;;;;;;1.03;1.03;;;19.70;42.90;;;;;;4969101;28;20493;-68
2021/01/30 07:30:52;;;;;;;1.13;1.13;;;19.70;42.90;;;;;;5045583;28;20505;-68
2021/01/30 07:33:21;;;;;;;1.00;1.00;;;19.70;42.80;;;;;;5025211;28;20497;-68
2021/01/30 07:35:52;;;;;;;1.10;1.00;;;19.70;42.90;;;;;;4996819;28;20503;-68
2021/01/30 07:38:20;;;;;;;0.97;0.97;;;19.80;42.90;;;;;;5035038;28;20553;-68
2021/01/30 07:40:48;;;;;;;1.20;1.20;;;19.80;42.80;;;;;;5010561;28;20484;-69
2021/01/30 07:43:16;;;;;;;1.27;1.27;;;19.90;42.60;;;;;;5033629;28;20485;-69
2021/01/30 07:45:45;;;;;;;1.10;1.07;;;20.00;42.50;;;;;;4973963;28;21077;-68
2021/01/30 07:48:14;;;;;;;1.00;1.00;;;20.00;42.30;;;;;;4969077;28;20482;-69
2021/01/30 07:50:42;;;;;;;0.90;0.90;;;20.00;42.30;;;;;;4971487;28;21091;-68
2021/01/30 07:53:09;;;;;;;1.00;1.00;;;20.00;42.30;;;;;;4968779;28;20508;-68
2021/01/30 07:55:36;;;;;;;0.93;0.93;;;20.00;42.40;;;;;;4991472;28;20481;-68
2021/01/30 07:58:10;;;;;;;0.97;0.97;;;19.90;42.30;;;;;;5022665;28;20485;-68
2021/01/30 08:00:42;;;;;;;1.10;1.10;;;19.90;42.30;;;;;;4965508;28;20552;-67
2021/01/30 08:03:28;;;;;;;1.33;1.33;;;19.90;42.40;;;;;;4970006;28;20493;-68
2021/01/30 08:06:09;;;;;;;0.80;0.80;;;19.90;42.30;;;;;;4967076;28;20490;-68
2021/01/30 08:08:37;;;;;;;1.47;1.37;;;19.80;42.30;;;;;;4969979;28;20496;-67
2021/01/30 08:11:10;;;;;;;1.47;1.40;;;19.80;43.20;;;;;;4972060;28;21119;-68
2021/01/30 08:13:41;;;;;;;1.77;1.10;;;19.80;42.50;;;;;;5034860;28;20494;-68
2021/01/30 08:16:15;;;;;;;0.73;0.73;;;19.80;42.50;;;;;;4970198;28;20871;-68
2021/01/30 08:18:42;;;;;;;0.80;0.80;;;19.80;42.70;;;;;;4968511;28;20477;-68
2021/01/30 08:21:13;;;;;;;1.20;1.20;;;19.80;42.60;;;;;;5013052;28;20480;-68
2021/01/30 08:23:44;;;;;;;1.17;0.87;;;19.90;42.70;;;;;;4993308;28;20849;-67
2021/01/30 08:26:12;;;;;;;0.97;0.97;;;19.80;42.60;;;;;;4970837;28;20500;-68
2021/01/30 08:28:40;;;;;;;1.10;1.00;;;19.80;42.50;;;;;;4970905;28;20524;-68
2021/01/30 08:31:06;;;;;;;0.90;0.90;;;19.90;42.60;;;;;;4967791;28;20520;-68
2021/01/30 08:34:00;;;;;;;0.97;0.97;;;19.80;42.50;;;;;;4969203;28;20485;-68
2021/01/30 08:36:31;;;;;;;0.90;0.90;;;19.80;42.50;;;;;;4961344;28;20470;-68
2021/01/30 08:39:01;;;;;;;1.00;1.00;;;19.80;42.60;;;;;;5047216;28;20497;-68
2021/01/30 08:41:41;;;;;;;1.17;1.17;;;19.70;42.50;;;;;;4990487;28;20485;-69
2021/01/30 08:44:08;;;;;;;0.93;0.93;;;19.70;42.50;;;;;;4986236;28;20481;-68
2021/01/30 08:46:37;;;;;;;1.30;1.30;;;19.70;42.40;;;;;;4978186;28;20498;-69
2021/01/30 08:49:20;;;;;;;0.90;0.90;;;19.70;42.40;;;;;;4970302;28;21115;-68
2021/01/30 08:51:47;;;;;;;1.20;1.20;;;19.70;42.30;;;;;;5030477;28;20492;-67
2021/01/30 08:54:30;;;;;;;1.20;1.10;;;19.80;42.30;;;;;;4969954;28;20482;-68
2021/01/30 08:56:56;;;;;;;1.37;1.13;;;19.80;42.40;;;;;;4972737;28;21178;-68
2021/01/30 08:59:43;;;;;;;1.30;1.10;;;19.80;42.30;;;;;;4968904;28;20494;-72
2021/01/30 09:02:10;;;;;;;1.07;0.97;;;19.80;42.30;;;;;;4968829;28;20494;-68
2021/01/30 09:04:40;;;;;;;0.80;0.80;;;19.80;42.40;;;;;;4971218;28;20486;-68
2021/01/30 09:07:07;;;;;;;1.47;1.37;;;19.80;42.20;;;;;;4967938;28;20503;-68
2021/01/30 09:09:33;;;;;;;2.73;1.00;;;19.80;42.10;;;;;;4969953;28;20542;-68
2021/01/30 09:12:02;;;;;;;1.07;0.90;;;19.80;42.30;;;;;;5018837;28;20501;-68
2021/01/30 09:14:40;;;;;;;1.30;1.00;;;19.80;42.20;;;;;;5029928;28;20489;-68
2021/01/30 09:17:24;;;;;;;1.10;1.10;;;19.80;42.30;;;;;;5038173;28;20496;-68
2021/01/30 09:19:58;;;;;;;1.00;1.00;;;19.80;42.20;;;;;;5008814;28;20492;-68
2021/01/30 09:22:27;;;;;;;1.20;1.10;;;19.90;42.20;;;;;;4961642;28;21001;-67
2021/01/30 09:25:12;;;;;;;1.03;1.03;;;19.90;42.10;;;;;;4966469;28;20489;-68
2021/01/30 09:27:46;;;;;;;1.10;1.10;;;19.90;42.10;;;;;;4971355;28;20481;-69
2021/01/30 09:30:34;;;;;;;1.30;1.30;;;19.90;42.10;;;;;;4968741;28;20482;-69
2021/01/30 09:33:01;;;;;;;1.00;1.00;;;19.80;42.10;;;;;;4971786;28;20496;-68
2021/01/30 09:35:30;;;;;;;1.23;1.20;;;19.80;42.10;;;;;;4972626;28;20492;-67
2021/01/30 09:37:57;;;;;;;0.73;0.73;;;19.80;42.10;;;;;;4972007;28;20918;-68
2021/01/30 09:40:25;;;;;;;1.07;1.00;;;19.80;42.10;;;;;;4971866;28;20481;-68
2021/01/30 09:42:58;;;;;;;1.07;1.07;;;19.80;42.00;;;;;;4969731;28;20862;-67
2021/01/30 09:45:25;;;;;;;1.30;1.30;;;19.80;42.10;;;;;;4974078;28;20539;-68
2021/01/30 09:47:52;;;;;;;0.90;0.90;;;19.80;42.20;;;;;;4975067;28;20493;-68
2021/01/30 09:50:21;;;;;;;0.93;0.93;;;19.90;42.20;;;;;;5027222;28;20486;-67
2021/01/30 09:52:51;;;;;;;1.03;1.00;;;19.90;42.10;;;;;;4968235;28;20499;-67
2021/01/30 09:55:17;;;;;;;0.80;0.80;;;20.00;42.00;;;;;;4970183;28;20859;-67
2021/01/30 09:57:43;;;;;;;1.10;1.10;;;20.00;41.90;;;;;;4971370;28;20489;-67
2021/01/30 10:00:12;;;;;;;1.00;1.00;;;20.00;42.00;;;;;;4970045;28;21027;-69
2021/01/30 10:02:39;;;;;;;1.90;1.30;;;19.90;41.90;;;;;;4968393;28;20477;-68
2021/01/30 10:05:06;;;;;;;1.07;1.07;;;19.90;42.00;;;;;;5040431;28;20485;-68
2021/01/30 10:07:32;;;;;;;1.03;1.03;;;19.90;42.10;;;;;;5014775;28;20485;-68
2021/01/30 10:09:59;;;;;;;0.80;0.80;;;19.90;42.20;;;;;;4970534;28;20846;-68
2021/01/30 10:12:26;;;;;;;1.30;1.30;;;19.90;42.20;;;;;;4971416;28;20477;-68
2021/01/30 10:14:53;;;;;;;0.90;0.87;;;19.90;42.10;;;;;;4971271;28;20556;-68
2021/01/30 10:17:21;;;;;;;0.70;0.70;;;20.00;42.20;;;;;;5027235;28;20541;-69
2021/01/30 10:19:50;;;;;;;1.40;1.30;;;20.00;42.20;;;;;;5039806;28;20944;-68
2021/01/30 10:22:17;;;;;;;0.87;0.87;;;20.00;42.00;;;;;;4976390;28;20484;-69
2021/01/30 10:24:44;;;;;;;1.07;1.07;;;20.00;42.10;;;;;;5037313;28;20477;-70
2021/01/30 10:27:14;;;;;;;1.07;0.90;;;19.90;41.90;;;;;;4971080;28;21155;-69
2021/01/30 10:29:40;;;;;;;1.47;1.13;;;19.90;42.00;;;;;;4971463;28;20849;-69
2021/01/30 10:32:09;;;;;;;1.20;1.20;;;19.90;42.00;;;;;;4970620;28;21265;-68
2021/01/30 10:34:36;;;;;;;0.90;0.90;;;19.90;41.90;;;;;;4971473;28;20498;-68
2021/01/30 10:37:03;;;;;;;1.30;1.20;;;19.90;42.00;;;;;;4966739;28;20478;-68
2021/01/30 10:39:31;;;;;;;1.00;1.00;;;19.90;42.80;;;;;;5046378;28;20493;-67
2021/01/30 10:42:00;;;;;;;0.97;0.97;;;19.80;42.00;;;;;;4969544;28;21006;-67
2021/01/30 10:44:29;;;;;;;1.00;1.00;;;19.90;42.00;;;;;;4968755;28;20482;-68
2021/01/30 10:46:56;;;;;;;0.90;0.90;;;19.90;42.10;;;;;;4972792;28;20880;-68
2021/01/30 10:49:24;;;;;;;0.87;0.87;;;19.90;42.00;;;;;;4977721;28;21089;-68
2021/01/30 10:52:01;;;;;;;0.90;0.90;;;19.90;42.10;;;;;;5023543;28;20512;-67
2021/01/30 10:54:28;;;;;;;1.03;1.03;;;19.90;42.00;;;;;;4968822;28;20485;-68
2021/01/30 10:57:13;;;;;;;0.90;0.90;;;19.90;42.20;;;;;;4970687;28;20482;-68
2021/01/30 10:59:48;;;;;;;1.00;1.00;;;19.90;42.30;;;;;;4972540;28;20482;-68
2021/01/30 11:02:24;;;;;;;0.87;0.87;;;19.90;42.10;;;;;;4969057;28;21021;-68
2021/01/30 11:05:00;;;;;;;1.40;1.30;;;19.90;42.10;;;;;;5029328;28;20576;-68
2021/01/30 11:07:35;;;;;;;1.20;1.20;;;19.90;42.10;;;;;;4984928;28;20482;-68
2021/01/30 11:10:01;;;;;;;0.90;0.90;;;19.90;42.10;;;;;;4968076;28;20493;-68
2021/01/30 11:12:27;;;;;;;0.93;0.93;;;19.90;42.10;;;;;;4969047;28;20486;-68
2021/01/30 11:14:54;;;;;;;1.00;1.00;;;19.80;42.10;;;;;;4968410;28;20481;-69
2021/01/30 11:17:25;;;;;;;1.00;1.00;;;19.80;42.30;;;;;;4970612;28;20482;-69
2021/01/30 11:19:51;;;;;;;1.23;1.17;;;19.80;42.20;;;;;;5028465;28;20588;-68
2021/01/30 11:22:21;;;;;;;0.97;0.97;;;19.80;42.30;;;;;;4966604;28;20473;-68
2021/01/30 11:24:47;;;;;;;0.90;0.90;;;19.80;42.30;;;;;;4969125;28;20512;-68
2021/01/30 11:27:31;;;;;;;0.90;0.90;;;19.80;42.10;;;;;;4971481;28;20496;-68
2021/01/30 11:29:58;;;;;;;1.20;1.20;;;19.80;42.10;;;;;;4968344;28;20929;-69
2021/01/30 11:32:24;;;;;;;0.87;0.87;;;19.90;42.20;;;;;;4970726;28;20496;-68
2021/01/30 11:34:52;;;;;;;1.07;1.07;;;19.80;42.10;;;;;;5026565;28;20485;-68
2021/01/30 11:37:18;;;;;;;0.90;0.90;;;19.80;42.20;;;;;;4967038;28;20484;-68
2021/01/30 11:39:44;;;;;;;1.27;1.17;;;19.80;42.90;;;;;;4989793;28;20495;-69
2021/01/30 11:42:10;;;;;;;1.70;1.33;;;19.90;42.20;;;;;;5018828;28;20496;-68
2021/01/30 11:44:37;;;;;;;1.20;1.20;;;19.80;42.10;;;;;;4968752;28;21016;-68
2021/01/30 11:47:04;;;;;;;1.10;1.10;;;19.80;42.00;;;;;;4969685;28;20495;-68
2021/01/30 11:49:30;;;;;;;1.00;1.00;;;19.80;42.10;;;;;;4970367;28;20482;-68
2021/01/30 11:51:56;;;;;;;0.90;0.90;;;19.80;42.10;;;;;;4969642;28;20489;-69
2021/01/30 11:54:22;;;;;;;1.10;1.10;;;19.90;42.10;;;;;;4967203;28;20890;-68
2021/01/30 11:56:48;;;;;;;1.00;1.00;;;19.90;42.20;;;;;;4970570;28;20497;-69
2021/01/30 11:59:14;;;;;;;1.27;1.20;;;19.90;42.20;;;;;;4966548;28;20488;-68
2021/01/30 12:01:41;;;;;;;0.97;0.93;;;19.90;42.20;;;;;;4968548;28;20473;-68
2021/01/30 12:04:08;;;;;;;1.23;1.13;;;19.90;42.20;;;;;;4969138;28;20529;-68
2021/01/30 12:06:34;;;;;;;1.10;1.10;;;19.90;42.10;;;;;;4970810;28;20965;-68
2021/01/30 12:09:00;;;;;;;1.00;0.90;;;19.80;42.70;;;;;;4969487;28;20559;-68
2021/01/30 12:11:26;;;;;;;1.03;1.03;;;19.80;42.10;;;;;;4966797;28;20489;-70
2021/01/30 12:13:54;;;;;;;1.30;1.30;;;19.80;42.10;;;;;;5060279;28;20618;-69
2021/01/30 12:16:22;;;;;;;1.60;1.60;;;19.90;42.10;;;;;;4991064;28;20477;-70
2021/01/30 12:18:48;;;;;;;0.90;0.90;;;19.80;42.00;;;;;;4987642;28;20493;-68
2021/01/30 12:21:15;;;;;;;1.10;1.10;;;19.80;42.00;;;;;;5041891;28;20489;-68
2021/01/30 12:23:41;;;;;;;1.30;1.20;;;19.90;42.20;;;;;;4969604;28;21160;-68
2021/01/30 12:26:07;;;;;;;1.10;1.10;;;19.80;42.10;;;;;;4970022;28;20522;-68
2021/01/30 12:28:34;;;;;;;1.20;1.20;;;19.80;42.10;;;;;;5042887;28;20567;-68
2021/01/30 12:31:01;;;;;;;1.10;1.00;;;19.90;42.20;;;;;;4966683;28;20577;-68
2021/01/30 12:33:27;;;;;;;1.20;1.20;;;19.80;42.00;;;;;;4970675;28;20498;-69
2021/01/30 12:35:53;;;;;;;0.90;0.90;;;19.80;42.00;;;;;;4970264;28;20485;-68
2021/01/30 12:38:21;;;;;;;1.20;1.20;;;19.80;42.10;;;;;;4971850;28;20482;-67
2021/01/30 12:40:47;;;;;;;0.97;0.97;;;19.90;42.30;;;;;;4976075;28;20554;-68
2021/01/30 12:43:14;;;;;;;1.13;1.13;;;19.80;42.20;;;;;;4964579;28;20569;-68
2021/01/30 12:45:40;;;;;;;1.00;1.00;;;19.90;42.20;;;;;;4970812;28;20477;-70
2021/01/30 12:48:07;;;;;;;1.30;1.20;;;19.90;42.00;;;;;;4972459;28;20490;-68
2021/01/30 12:50:33;;;;;;;0.90;0.90;;;20.00;42.10;;;;;;4972162;28;20474;-68
2021/01/30 12:52:59;;;;;;;0.90;0.90;;;20.00;42.00;;;;;;4965973;28;20921;-68
2021/01/30 12:55:26;;;;;;;1.10;1.00;;;20.00;42.00;;;;;;4967188;28;20485;-68
2021/01/30 12:57:53;;;;;;;0.87;0.87;;;19.90;42.00;;;;;;5025449;28;20506;-69
2021/01/30 13:00:21;;;;;;;1.10;1.10;;;19.90;42.10;;;;;;4972373;28;20876;-68